Time;durP1;ratioP1;P1;durP2;ratioP2;P2;SDS_P1;SDS_P2;PMS_P1;PMS_P2;Temp;Humidity;BMP_temperature;BMP_pressure;BME280_temperature;BME280_humidity;BME280_pressure;Samples;Min_cycle;Max_cycle;Signal;HPM_P1;HPM_P2
2023/01/22 00:01:54;;;;;;;126.25;53.65;;;;;;;-0.43;75.90;99037.03;5073538;28;20549;-77
2023/01/22 00:04:20;;;;;;;125.35;54.35;;;;;;;-0.44;75.96;99048.84;5073579;28;20025;-78
2023/01/22 00:06:45;;;;;;;123.57;53.92;;;;;;;-0.48;75.36;99044.91;5073891;28;20020;-77
2023/01/22 00:09:10;;;;;;;123.10;54.40;;;;;;;-0.53;75.73;99050.94;5072954;28;20448;-78
2023/01/22 00:11:36;;;;;;;126.63;53.50;;;;;;;-0.55;75.75;99044.94;5073532;28;20020;-78
2023/01/22 00:14:01;;;;;;;134.05;58.03;;;;;;;-0.54;75.73;99041.19;5072873;28;20024;-78
2023/01/22 00:16:26;;;;;;;135.18;55.92;;;;;;;-0.53;75.87;99052.78;5055191;28;20025;-78
2023/01/22 00:18:52;;;;;;;130.75;56.30;;;;;;;-0.55;75.77;99054.84;5073344;28;20036;-77
2023/01/22 00:21:17;;;;;;;124.43;53.50;;;;;;;-0.65;75.65;99053.44;5073064;28;20513;-76
2023/01/22 00:23:42;;;;;;;128.07;56.50;;;;;;;-0.68;76.18;99061.09;5072580;28;20449;-78
2023/01/22 00:26:14;;;;;;;125.53;55.47;;;;;;;-0.71;75.59;99064.19;5068744;28;20103;-77
2023/01/22 00:28:41;;;;;;;128.07;56.85;;;;;;;-0.73;76.06;99058.19;5071069;28;20032;-77
2023/01/22 00:31:07;;;;;;;138.63;58.13;;;;;;;-0.76;76.16;99065.66;5072951;28;20033;-78
2023/01/22 00:33:33;;;;;;;135.95;58.33;;;;;;;-0.77;75.88;99058.59;5073085;28;20529;-77
2023/01/22 00:36:14;;;;;;;136.32;58.30;;;;;;;-0.76;75.96;99070.22;5073079;28;20025;-77
2023/01/22 00:38:39;;;;;;;135.57;59.20;;;;;;;-0.73;76.01;99068.97;5073161;28;20021;-77
2023/01/22 00:41:06;;;;;;;135.55;58.53;;;;;;;-0.71;76.15;99072.28;5073044;28;20082;-77
2023/01/22 00:43:33;;;;;;;140.80;61.13;;;;;;;-0.69;76.10;99083.69;5072998;28;20031;-77
2023/01/22 00:45:59;;;;;;;148.23;60.22;;;;;;;-0.66;76.39;99070.63;5072894;28;20086;-76
2023/01/22 00:48:24;;;;;;;139.55;59.45;;;;;;;-0.65;76.36;99071.44;5054971;28;20028;-77
2023/01/22 00:50:50;;;;;;;143.73;60.90;;;;;;;-0.64;75.99;99076.66;5073007;28;20081;-77
2023/01/22 00:53:15;;;;;;;141.95;61.40;;;;;;;-0.62;75.78;99077.28;5072872;28;20064;-77
2023/01/22 00:55:56;;;;;;;141.68;60.20;;;;;;;-0.60;76.17;99085.94;5072890;28;20028;-78
2023/01/22 00:58:22;;;;;;;143.70;60.25;;;;;;;-0.60;76.44;99096.72;5071326;28;20089;-77
2023/01/22 01:00:47;;;;;;;152.43;63.55;;;;;;;-0.60;75.95;99093.22;5072546;28;20107;-77
2023/01/22 01:03:30;;;;;;;141.88;60.90;;;;;;;-0.58;76.42;99090.31;5072621;28;20028;-77
2023/01/22 01:06:04;;;;;;;153.95;62.20;;;;;;;-0.56;76.40;99082.84;5072366;28;20539;-77
2023/01/22 01:08:33;;;;;;;150.82;63.92;;;;;;;-0.60;76.38;99082.44;5072256;28;20048;-77
2023/01/22 01:11:01;;;;;;;146.50;61.60;;;;;;;-0.64;76.11;99082.03;5072189;28;20060;-76
2023/01/22 01:13:27;;;;;;;148.27;63.28;;;;;;;-0.65;75.83;99088.47;5072268;28;20090;-77
2023/01/22 01:16:00;;;;;;;149.30;64.75;;;;;;;-0.64;76.29;99087.44;5072152;28;20105;-78
2023/01/22 01:18:26;;;;;;;162.15;65.80;;;;;;;-0.60;76.10;99085.94;5072144;28;20505;-77
2023/01/22 01:20:56;;;;;;;147.75;64.38;;;;;;;-0.57;75.80;99094.66;5071654;28;20025;-77
2023/01/22 01:23:23;;;;;;;;;;;;;;;-0.55;75.85;99089.88;5071840;28;20024;-78
2023/01/22 01:25:48;;;;;;;150.85;63.90;;;;;;;-0.53;75.99;99090.50;5072387;28;19966;-77
2023/01/22 01:28:13;;;;;;;152.80;64.72;;;;;;;-0.53;76.33;99098.59;5071789;28;20024;-76
2023/01/22 01:30:39;;;;;;;160.07;64.82;;;;;;;-0.52;75.93;99101.09;5071771;28;20497;-77
2023/01/22 01:33:04;;;;;;;161.13;62.83;;;;;;;-0.50;76.03;99090.09;5072165;28;20024;-76
2023/01/22 01:35:29;;;;;;;157.52;62.83;;;;;;;-0.49;76.26;99086.38;5072043;28;20031;-77
2023/01/22 01:37:55;;;;;;;147.60;60.83;;;;;;;-0.47;76.38;99082.44;5072103;28;20017;-77
2023/01/22 01:40:20;;;;;;;161.93;65.05;;;;;;;-0.46;76.00;99080.56;5071633;28;20489;-77
2023/01/22 01:42:46;;;;;;;151.57;62.92;;;;;;;-0.44;76.31;99091.97;5071711;28;20522;-77
2023/01/22 01:45:25;;;;;;;156.70;63.35;;;;;;;-0.44;76.08;99083.88;5071975;28;20592;-77
2023/01/22 01:48:04;;;;;;;142.48;60.97;;;;;;;-0.40;76.33;99085.13;5071977;28;20024;-77
2023/01/22 01:50:30;;;;;;;139.13;60.55;;;;;;;-0.37;75.95;99091.94;5071927;28;20040;-76
2023/01/22 01:52:58;;;;;;;146.90;58.45;;;;;;;-0.35;76.30;99097.97;5071585;28;20033;-77
2023/01/22 01:55:28;;;;;;;137.68;56.10;;;;;;;-0.32;76.27;99095.69;5071666;28;20359;-76
2023/01/22 01:57:57;;;;;;;131.43;56.05;;;;;;;-0.28;76.55;99103.34;5071503;28;20033;-76
2023/01/22 02:00:25;;;;;;;137.88;60.28;;;;;;;-0.26;76.32;99101.28;5071375;28;20103;-76
2023/01/22 02:02:51;;;;;;;141.18;59.22;;;;;;;-0.26;76.09;99091.31;5053587;28;20032;-77
2023/01/22 02:05:19;;;;;;;151.80;64.57;;;;;;;-0.24;76.18;99097.31;5071968;28;20028;-76
2023/01/22 02:07:45;;;;;;;144.05;59.78;;;;;;;-0.24;76.28;99102.72;5072128;28;20029;-77
2023/01/22 02:10:10;;;;;;;141.38;58.80;;;;;;;-0.23;76.12;99109.78;5069221;28;20371;-77
2023/01/22 02:12:35;;;;;;;138.25;60.58;;;;;;;-0.22;75.91;99114.13;5071647;28;20024;-77
2023/01/22 02:15:02;;;;;;;128.80;55.40;;;;;;;-0.20;75.97;99116.59;5071096;28;20485;-77
2023/01/22 02:17:28;;;;;;;129.15;56.60;;;;;;;-0.19;76.32;99118.25;5071973;28;20157;-76
2023/01/22 02:19:54;;;;;;;136.02;56.95;;;;;;;-0.17;76.07;99121.56;5071856;28;20044;-77
2023/01/22 02:22:22;;;;;;;120.07;52.03;;;;;;;-0.16;76.23;99124.06;5071335;28;20036;-76
2023/01/22 02:24:47;;;;;;;129.88;54.95;;;;;;;-0.12;76.37;99119.06;5071260;28;20021;-77
2023/01/22 02:27:13;;;;;;;126.30;54.03;;;;;;;-0.09;75.99;99134.03;5071410;28;20394;-76
2023/01/22 02:29:39;;;;;;;123.53;53.72;;;;;;;-0.10;76.06;99126.97;5071487;28;20017;-76
2023/01/22 02:32:05;;;;;;;115.65;53.10;;;;;;;-0.09;76.04;99125.94;5069531;28;20021;-76
2023/01/22 02:34:30;;;;;;;116.32;52.13;;;;;;;-0.08;75.84;99122.19;5068781;28;20097;-76
2023/01/22 02:36:56;;;;;;;114.47;50.13;;;;;;;-0.08;75.69;99130.28;5070078;28;20490;-76
2023/01/22 02:39:21;;;;;;;117.05;52.20;;;;;;;-0.05;75.93;99133.38;5069958;28;20108;-76
2023/01/22 02:41:47;;;;;;;115.78;51.15;;;;;;;-0.04;76.09;99137.75;5070491;28;20504;-77
2023/01/22 02:44:12;;;;;;;119.82;50.83;;;;;;;-0.02;76.12;99140.25;5070978;28;20068;-76
2023/01/22 02:46:38;;;;;;;128.63;54.20;;;;;;;-0.02;75.81;99134.84;5070979;28;20521;-76
2023/01/22 02:49:04;;;;;;;129.85;55.30;;;;;;;-0.01;75.94;99137.31;5070628;28;20016;-76
2023/01/22 02:51:29;;;;;;;145.52;56.10;;;;;;;0.02;76.30;99135.25;5070346;28;20029;-76
2023/01/22 02:53:54;;;;;;;150.07;57.10;;;;;;;0.03;75.40;99131.50;5070424;28;20025;-76
2023/01/22 02:56:20;;;;;;;154.93;56.17;;;;;;;0.04;76.36;99130.47;5070609;28;20053;-76
2023/01/22 02:58:46;;;;;;;144.38;54.10;;;;;;;0.04;75.90;99144.75;5070792;28;20025;-76
2023/01/22 03:01:29;;;;;;;135.80;51.95;;;;;;;0.05;75.53;99134.81;5070451;28;20032;-76
2023/01/22 03:04:00;;;;;;;121.90;50.72;;;;;;;0.07;75.67;99133.56;5070591;28;20021;-77
2023/01/22 03:06:27;;;;;;;110.45;45.83;;;;;;;0.08;76.29;99134.41;5070516;28;20016;-76
2023/01/22 03:08:56;;;;;;;108.93;45.47;;;;;;;0.08;76.31;99129.81;5070779;28;20044;-76
2023/01/22 03:11:22;;;;;;;113.22;46.80;;;;;;;0.08;76.01;99129.00;5071258;28;20029;-76
2023/01/22 03:22:01;;;;;;;105.28;42.60;;;;;;;0.13;75.62;99140.00;5070981;28;20087;-76
2023/01/22 03:24:27;;;;;;;96.53;42.42;;;;;;;0.14;75.99;99136.25;5052869;28;20033;-76
2023/01/22 03:26:52;;;;;;;94.22;40.28;;;;;;;0.17;76.04;99141.25;5070832;28;20029;-77
2023/01/22 03:29:17;;;;;;;90.45;40.88;;;;;;;0.17;76.21;99143.94;5070930;28;20032;-76
2023/01/22 03:31:47;;;;;;;89.68;39.25;;;;;;;0.18;76.44;99145.59;5070434;28;20043;-76
2023/01/22 03:34:16;;;;;;;82.90;39.15;;;;;;;0.18;76.02;99144.75;5070972;28;20033;-76
2023/01/22 03:36:42;;;;;;;86.68;38.85;;;;;;;0.21;76.30;99145.13;5071081;28;20113;-76
2023/01/22 03:39:07;;;;;;;75.38;35.17;;;;;;;0.22;75.91;99146.00;5053215;28;20053;-76
2023/01/22 03:41:33;;;;;;;79.88;39.78;;;;;;;0.24;76.08;99143.91;5070936;28;20028;-77
2023/01/22 03:44:00;;;;;;;80.72;38.30;;;;;;;0.23;75.93;99142.25;5073740;28;20021;-77
2023/01/22 03:46:26;;;;;;;82.85;41.08;;;;;;;0.24;76.11;99143.91;5074344;28;20028;-76
2023/01/22 03:48:52;;;;;;;78.00;36.38;;;;;;;0.25;75.98;99143.69;5074837;28;20025;-76
2023/01/22 03:51:18;;;;;;;74.43;35.92;;;;;;;0.27;76.26;99144.31;5074691;28;20028;-76
2023/01/22 03:53:44;;;;;;;78.00;35.33;;;;;;;0.28;75.72;99140.56;5074682;28;20032;-77
2023/01/22 03:56:13;;;;;;;74.93;36.00;;;;;;;0.29;75.82;99138.72;5074525;28;20043;-77
2023/01/22 03:58:39;;;;;;;79.25;36.70;;;;;;;0.29;76.28;99139.53;5074926;28;20028;-76
2023/01/22 04:01:09;;;;;;;71.70;31.92;;;;;;;0.30;75.91;99132.28;5074372;28;20406;-76
2023/01/22 04:03:35;;;;;;;74.20;35.30;;;;;;;0.30;75.95;99134.97;5074670;28;20024;-76
2023/01/22 04:06:00;;;;;;;86.07;37.42;;;;;;;0.32;76.16;99124.78;5074883;28;20025;-77
2023/01/22 04:08:28;;;;;;;75.97;32.97;;;;;;;0.32;76.20;99123.94;5074223;28;20037;-77
2023/01/22 04:10:57;;;;;;;60.60;28.77;;;;;;;0.32;76.03;99130.19;5074435;28;20059;-77
2023/01/22 04:13:24;;;;;;;62.35;29.42;;;;;;;0.33;75.97;99120.22;5074397;28;20610;-77
2023/01/22 04:15:49;;;;;;;54.55;26.02;;;;;;;0.35;75.70;99134.31;5074520;28;20048;-76
2023/01/22 04:18:15;;;;;;;53.78;26.58;;;;;;;0.36;75.62;99127.88;5074299;28;20551;-76
2023/01/22 04:20:41;;;;;;;51.40;24.02;;;;;;;0.38;75.89;99129.34;5073870;28;20028;-76
2023/01/22 04:23:07;;;;;;;49.10;24.30;;;;;;;0.40;75.60;99134.50;5074210;28;20497;-77
2023/01/22 04:25:33;;;;;;;46.20;21.95;;;;;;;0.41;76.32;99130.78;5074154;28;20019;-76
2023/01/22 04:27:59;;;;;;;48.05;22.55;;;;;;;0.41;75.83;99126.19;5073701;28;20496;-76
2023/01/22 04:30:24;;;;;;;52.90;24.58;;;;;;;0.42;76.35;99130.53;5073820;28;20060;-76
2023/01/22 04:32:50;;;;;;;53.70;24.33;;;;;;;0.45;76.24;99129.31;5055922;28;20117;-76
2023/01/22 04:35:15;;;;;;;48.15;22.35;;;;;;;0.45;75.55;99123.91;5072979;28;20155;-76
2023/01/22 04:37:41;;;;;;;48.83;21.77;;;;;;;0.44;75.72;99127.66;5072997;28;20025;-76
2023/01/22 04:40:07;;;;;;;46.03;20.50;;;;;;;0.44;75.80;99116.84;5072742;28;20024;-76
2023/01/22 04:42:32;;;;;;;41.60;20.15;;;;;;;0.45;75.54;99118.50;5073315;28;20032;-76
2023/01/22 04:44:58;;;;;;;47.33;22.55;;;;;;;0.44;75.33;99125.78;5073720;28;20029;-76
2023/01/22 04:47:23;;;;;;;46.38;22.15;;;;;;;0.44;75.84;99128.47;5073560;28;20029;-76
2023/01/22 04:49:49;;;;;;;44.65;20.92;;;;;;;0.44;75.71;99127.66;5073627;28;20036;-76
2023/01/22 04:52:14;;;;;;;43.53;21.30;;;;;;;0.44;76.18;99138.44;5055602;28;20368;-76
2023/01/22 04:54:40;;;;;;;42.35;20.45;;;;;;;0.45;76.11;99129.31;5072894;28;20031;-76
2023/01/22 04:57:05;;;;;;;42.17;20.30;;;;;;;0.44;75.86;99136.56;5073661;28;20027;-76
2023/01/22 04:59:31;;;;;;;42.78;21.13;;;;;;;0.44;75.89;99141.16;5055574;28;20179;-76
2023/01/22 05:01:56;;;;;;;39.50;19.65;;;;;;;0.46;75.95;99143.63;5073712;28;20032;-76
2023/01/22 05:04:22;;;;;;;39.80;21.25;;;;;;;0.44;76.16;99139.25;5073490;28;20099;-77
2023/01/22 05:06:48;;;;;;;39.00;19.70;;;;;;;0.46;75.91;99147.16;5055723;28;20608;-77
2023/01/22 05:09:13;;;;;;;37.63;18.00;;;;;;;0.48;75.92;99144.22;5073087;28;20090;-76
2023/01/22 05:11:39;;;;;;;36.70;18.95;;;;;;;0.49;75.77;99138.66;5073454;28;20029;-77
2023/01/22 05:14:05;;;;;;;36.67;18.35;;;;;;;0.49;75.84;99141.34;5073374;28;20058;-77
2023/01/22 05:16:30;;;;;;;40.05;20.45;;;;;;;0.51;75.57;99154.59;5073324;28;20040;-76
2023/01/22 05:18:55;;;;;;;40.55;22.23;;;;;;;0.48;76.07;99153.19;5073017;28;20028;-77
2023/01/22 05:21:21;;;;;;;38.50;19.00;;;;;;;0.46;75.95;99146.31;5073040;28;20036;-77
2023/01/22 05:23:47;;;;;;;35.15;17.75;;;;;;;0.44;75.90;99141.16;5072979;28;20074;-77
2023/01/22 05:26:12;;;;;;;30.23;16.23;;;;;;;0.44;76.03;99149.25;5072974;28;20437;-76
2023/01/22 05:28:38;;;;;;;37.00;19.73;;;;;;;0.45;76.17;99148.19;5073119;28;20050;-77
2023/01/22 05:31:03;;;;;;;30.75;15.25;;;;;;;0.46;75.33;99157.13;5072785;28;20486;-76
2023/01/22 05:33:29;;;;;;;28.88;16.23;;;;;;;0.45;75.79;99156.31;5072785;28;20025;-76
2023/01/22 05:36:00;;;;;;;31.83;16.17;;;;;;;0.46;76.07;99154.41;5072500;28;20127;-76
2023/01/22 05:38:27;;;;;;;;;;;;;;;0.48;75.59;99150.47;5073083;28;20028;-76
2023/01/22 05:40:52;;;;;;;25.63;14.60;;;;;;;0.49;75.68;99159.38;5072749;28;19955;-76
2023/01/22 05:43:17;;;;;;;31.13;18.15;;;;;;;0.47;75.58;99159.63;5072770;28;20463;-76
2023/01/22 05:45:43;;;;;;;43.83;21.25;;;;;;;0.48;75.53;99169.38;5072659;28;20037;-77
2023/01/22 05:48:09;;;;;;;50.72;22.05;;;;;;;0.49;76.32;99170.19;5072466;28;20032;-76
2023/01/22 05:50:35;;;;;;;63.05;32.80;;;;;;;0.49;75.83;99165.63;5071137;28;20029;-77
2023/01/22 05:53:01;;;;;;;76.28;34.78;;;;;;;0.50;75.93;99174.53;5072478;28;20040;-76
2023/01/22 05:55:26;;;;;;;56.80;26.75;;;;;;;0.50;75.99;99172.69;5072544;28;20161;-76
2023/01/22 05:57:51;;;;;;;62.38;25.27;;;;;;;0.50;75.77;99163.75;5072524;28;20035;-76
2023/01/22 06:00:17;;;;;;;59.80;24.60;;;;;;;0.53;75.35;99164.16;5072304;28;20063;-76
2023/01/22 06:02:43;;;;;;;60.90;26.35;;;;;;;0.53;75.99;99174.13;5072097;28;20375;-76
2023/01/22 06:05:08;;;;;;;81.82;30.08;;;;;;;0.51;75.43;99178.91;5071898;28;20025;-76
2023/01/22 06:07:34;;;;;;;123.45;39.85;;;;;;;0.53;75.30;99185.75;5072332;28;20081;-76
2023/01/22 06:09:59;;;;;;;113.75;37.40;;;;;;;0.52;76.16;99172.47;5072025;28;20048;-76
2023/01/22 06:12:25;;;;;;;188.38;49.80;;;;;;;0.52;75.63;99175.16;5054254;28;20025;-76
2023/01/22 06:14:52;;;;;;;147.57;40.78;;;;;;;0.51;75.90;99178.91;5071992;28;20033;-77
2023/01/22 06:17:17;;;;;;;186.50;50.78;;;;;;;0.50;75.33;99178.09;5072146;28;20025;-77
2023/01/22 06:19:42;;;;;;;173.88;47.78;;;;;;;0.53;75.76;99187.63;5071822;28;20085;-76
2023/01/22 06:22:08;;;;;;;212.77;55.55;;;;;;;0.50;75.39;99186.19;5071818;28;20028;-76
2023/01/22 06:24:33;;;;;;;262.65;64.85;;;;;;;0.50;75.81;99191.59;5071752;28;20025;-76
2023/01/22 06:26:59;;;;;;;117.57;39.83;;;;;;;0.50;75.71;99196.97;5071865;28;20020;-76
2023/01/22 06:29:24;;;;;;;81.65;42.00;;;;;;;0.48;75.07;99204.47;5071792;28;20032;-76
2023/01/22 06:31:49;;;;;;;65.93;37.25;;;;;;;0.48;75.77;99201.75;5071784;28;20029;-76
2023/01/22 06:34:15;;;;;;;84.32;46.10;;;;;;;0.46;75.53;99201.13;5071614;28;20455;-76
2023/01/22 06:36:40;;;;;;;82.22;47.88;;;;;;;0.46;75.32;99201.13;5071619;28;20040;-76
2023/01/22 06:39:06;;;;;;;54.95;31.90;;;;;;;0.44;75.04;99209.44;5070872;28;20584;-77
2023/01/22 06:41:31;;;;;;;61.40;39.03;;;;;;;0.44;75.81;99209.44;5070991;28;20116;-77
2023/01/22 06:43:56;;;;;;;65.70;43.92;;;;;;;0.45;75.82;99212.97;5070915;28;20027;-76
2023/01/22 06:46:22;;;;;;;49.63;31.52;;;;;;;0.46;75.41;99221.88;5070796;28;20466;-76
2023/01/22 06:48:47;;;;;;;41.75;27.02;;;;;;;0.47;75.41;99215.44;5071723;28;20024;-76
2023/01/22 06:51:12;;;;;;;39.13;23.02;;;;;;;0.48;75.70;99212.56;5071665;28;20393;-76
2023/01/22 06:53:38;;;;;;;36.60;20.33;;;;;;;0.48;75.48;99201.75;5071873;28;20096;-75
2023/01/22 06:56:04;;;;;;;30.25;17.45;;;;;;;0.50;75.58;99204.22;5071548;28;20024;-76
2023/01/22 06:58:30;;;;;;;32.40;18.13;;;;;;;0.52;75.81;99207.56;5071681;28;20021;-76
2023/01/22 07:01:00;;;;;;;28.02;15.85;;;;;;;0.53;75.66;99211.91;5071923;28;20113;-76
2023/01/22 07:03:25;;;;;;;18.95;11.82;;;;;;;0.51;76.03;99214.84;5071837;28;20021;-77
2023/01/22 07:05:59;;;;;;;22.45;12.93;;;;;;;0.51;75.73;99217.53;5071303;28;20021;-76
2023/01/22 07:08:25;;;;;;;26.73;13.98;;;;;;;0.51;75.07;99209.44;5071433;28;20037;-76
2023/01/22 07:10:51;;;;;;;21.88;13.02;;;;;;;0.51;75.42;99220.22;5071471;28;20029;-76
2023/01/22 07:13:16;;;;;;;21.35;11.60;;;;;;;0.51;75.35;99219.38;5071606;28;20100;-76
2023/01/22 07:15:42;;;;;;;21.88;12.23;;;;;;;0.51;75.78;99224.78;5071761;28;20024;-76
2023/01/22 07:18:09;;;;;;;20.92;11.43;;;;;;;0.51;75.28;99231.03;5073056;28;20698;-76
2023/01/22 07:20:35;;;;;;;21.50;12.55;;;;;;;0.50;75.02;99231.22;5075298;28;20021;-76
2023/01/22 07:23:01;;;;;;;23.35;12.93;;;;;;;0.50;75.56;99240.16;5057393;28;20028;-77
2023/01/22 07:25:27;;;;;;;20.15;12.27;;;;;;;0.53;75.57;99250.53;5075345;28;20112;-76
2023/01/22 07:28:05;;;;;;;23.77;13.63;;;;;;;0.53;75.72;99255.09;5075217;28;20516;-75
2023/01/22 07:30:31;;;;;;;22.65;13.25;;;;;;;0.57;75.46;99259.03;5075127;28;20095;-78
2023/01/22 07:32:59;;;;;;;31.13;16.25;;;;;;;0.57;75.59;99254.47;5057511;28;20028;-76
2023/01/22 07:35:25;;;;;;;34.28;15.68;;;;;;;0.59;75.31;99244.31;5075040;28;20026;-79
2023/01/22 07:37:52;;;;;;;29.35;15.02;;;;;;;0.60;75.30;99253.22;5072898;28;20085;-78
2023/01/22 07:40:17;;;;;;;30.55;14.38;;;;;;;0.62;75.30;99258.38;5073223;28;20103;-78
2023/01/22 07:42:43;;;;;;;29.55;15.52;;;;;;;0.63;75.74;99273.56;5074503;28;20115;-79
2023/01/22 07:45:09;;;;;;;31.95;14.73;;;;;;;0.65;75.98;99263.38;5056531;28;20021;-78
2023/01/22 07:47:35;;;;;;;26.98;14.65;;;;;;;0.67;75.60;99277.50;5074432;28;20031;-79
2023/01/22 07:50:00;;;;;;;30.17;16.30;;;;;;;0.66;75.62;99273.13;5074254;28;20025;-79
2023/01/22 07:52:25;;;;;;;24.88;13.52;;;;;;;0.70;75.66;99266.28;5074992;28;20093;-79
2023/01/22 07:54:51;;;;;;;24.23;12.82;;;;;;;0.71;75.62;99268.78;5073494;28;20046;-78
2023/01/22 07:57:17;;;;;;;25.33;14.18;;;;;;;0.72;75.71;99265.03;5073757;28;20032;-79
2023/01/22 07:59:43;;;;;;;19.15;11.15;;;;;;;0.72;75.18;99266.88;5073585;28;20059;-79
2023/01/22 08:02:13;;;;;;;19.63;10.63;;;;;;;0.73;75.87;99255.03;5073634;28;20068;-79
2023/01/22 08:04:42;;;;;;;21.33;11.70;;;;;;;0.72;75.67;99269.59;5073623;28;20374;-79
2023/01/22 08:07:16;;;;;;;24.02;12.38;;;;;;;0.77;75.80;99275.19;5073706;28;20115;-79
2023/01/22 08:09:42;;;;;;;28.20;14.40;;;;;;;0.79;75.87;99275.81;5073565;28;20037;-79
2023/01/22 08:12:08;;;;;;;23.00;12.68;;;;;;;0.80;75.72;99266.66;5073770;28;20016;-79
2023/01/22 08:14:34;;;;;;;22.63;12.23;;;;;;;0.82;75.65;99269.97;5074006;28;20103;-79
2023/01/22 08:16:59;;;;;;;22.75;12.70;;;;;;;0.84;75.67;99273.31;5073761;28;20108;-79
2023/01/22 08:19:24;;;;;;;26.27;13.95;;;;;;;0.86;75.34;99282.03;5073186;28;20466;-79
2023/01/22 08:21:50;;;;;;;51.55;22.77;;;;;;;0.91;75.06;99283.25;5073160;28;20390;-77
2023/01/22 08:24:16;;;;;;;49.67;22.42;;;;;;;0.93;75.14;99271.19;5073462;28;20051;-78
2023/01/22 08:26:44;;;;;;;29.88;15.70;;;;;;;0.96;75.27;99278.06;5073353;28;20025;-78
2023/01/22 08:29:09;;;;;;;32.60;15.73;;;;;;;0.99;75.46;99264.13;5073352;28;20020;-79
2023/01/22 08:31:35;;;;;;;34.28;18.58;;;;;;;1.00;75.67;99272.00;5073055;28;20082;-79
2023/01/22 08:34:00;;;;;;;54.15;24.95;;;;;;;1.01;75.25;99270.16;5055311;28;20032;-78
2023/01/22 08:36:26;;;;;;;61.92;29.10;;;;;;;1.00;75.63;99263.09;5073350;28;20493;-78
2023/01/22 08:38:51;;;;;;;56.25;27.63;;;;;;;1.01;75.12;99270.16;5073463;28;20501;-77
2023/01/22 08:41:17;;;;;;;40.70;20.02;;;;;;;0.99;75.12;99259.53;5073351;28;20098;-78
2023/01/22 08:43:42;;;;;;;37.03;19.52;;;;;;;0.98;75.17;99265.16;5073081;28;20429;-77
2023/01/22 08:46:07;;;;;;;33.85;18.08;;;;;;;0.98;74.86;99271.38;5073284;28;20036;-78
2023/01/22 08:48:33;;;;;;;30.50;18.30;;;;;;;0.98;75.73;99263.28;5073133;28;20020;-78
2023/01/22 08:50:59;;;;;;;32.60;18.35;;;;;;;0.98;75.41;99268.69;5073106;28;20522;-78
2023/01/22 08:53:25;;;;;;;37.60;19.90;;;;;;;1.01;75.73;99275.53;5073231;28;20028;-77
2023/01/22 08:55:50;;;;;;;42.20;22.85;;;;;;;1.00;75.61;99272.00;5073162;28;20474;-77
2023/01/22 08:58:16;;;;;;;43.95;21.38;;;;;;;1.01;75.90;99276.38;5072788;28;20482;-75
2023/01/22 09:00:43;;;;;;;48.88;23.55;;;;;;;1.00;75.09;99282.81;5073034;28;20021;-76
2023/01/22 09:03:08;;;;;;;52.92;24.17;;;;;;;1.02;75.33;99285.28;5071804;28;20028;-76
2023/01/22 09:05:37;;;;;;;52.58;23.42;;;;;;;1.03;75.41;99285.09;5071761;28;20056;-75
2023/01/22 09:08:03;;;;;;;52.33;24.17;;;;;;;1.03;75.68;99286.94;5072752;28;20042;-76
2023/01/22 09:10:28;;;;;;;54.47;24.13;;;;;;;1.03;75.63;99278.84;5072719;28;20082;-76
2023/01/22 09:12:54;;;;;;;52.95;24.45;;;;;;;1.04;75.39;99273.22;5072928;28;20012;-76
2023/01/22 09:15:19;;;;;;;52.13;23.58;;;;;;;1.04;75.51;99277.78;5072948;28;20025;-76
2023/01/22 09:17:44;;;;;;;59.50;28.45;;;;;;;1.03;75.57;99274.28;5072678;28;20124;-75
2023/01/22 09:20:10;;;;;;;61.97;28.75;;;;;;;1.06;75.83;99275.72;5072770;28;20020;-77
2023/01/22 09:22:35;;;;;;;55.38;26.90;;;;;;;1.09;75.17;99271.75;5054592;28;20811;-77
2023/01/22 09:25:01;;;;;;;49.72;27.92;;;;;;;1.12;75.27;99284.84;5072275;28;20024;-77
2023/01/22 09:27:26;;;;;;;45.88;25.38;;;;;;;1.14;75.70;99282.75;5054557;28;20028;-78
2023/01/22 09:29:51;;;;;;;54.63;28.75;;;;;;;1.14;75.11;99277.38;5072570;28;20029;-77
2023/01/22 09:32:17;;;;;;;41.25;23.88;;;;;;;1.15;75.06;99279.84;5072415;28;20096;-77
2023/01/22 09:34:42;;;;;;;45.35;23.38;;;;;;;1.20;75.71;99287.31;5072411;28;20202;-77
2023/01/22 09:37:10;;;;;;;68.25;31.88;;;;;;;1.21;75.37;99278.16;5072304;28;20021;-76
2023/01/22 09:39:35;;;;;;;56.80;26.95;;;;;;;1.25;75.13;99286.66;5072098;28;20028;-77
2023/01/22 09:42:02;;;;;;;55.00;27.77;;;;;;;1.29;76.10;99287.91;5071656;28;20032;-76
2023/01/22 09:44:39;;;;;;;62.08;29.63;;;;;;;1.30;75.15;99276.03;5071055;28;20059;-75
2023/01/22 09:47:44;;;;;;;55.33;27.20;;;;;;;1.32;75.25;99282.06;5070827;28;20130;-76
2023/01/22 09:50:32;;;;;;;64.80;32.90;;;;;;;1.30;75.09;99282.25;5067763;28;20165;-80
2023/01/22 09:53:02;;;;;;;52.53;27.50;;;;;;;1.32;75.24;99276.66;5071625;28;20131;-77
2023/01/22 09:55:31;;;;;;;53.67;26.90;;;;;;;1.34;75.20;99277.28;5072107;28;20028;-78
2023/01/22 09:58:01;;;;;;;55.63;29.02;;;;;;;1.37;75.77;99279.53;5069362;28;20135;-77
2023/01/22 10:00:43;;;;;;;49.13;22.33;;;;;;;1.38;75.03;99281.19;5071066;28;20028;-77
2023/01/22 10:03:14;;;;;;;42.45;22.17;;;;;;;1.41;75.92;99288.88;5070559;28;20478;-78
2023/01/22 10:05:43;;;;;;;45.03;22.67;;;;;;;1.44;75.51;99288.44;5070181;28;20032;-77
2023/01/22 10:08:15;;;;;;;51.20;25.77;;;;;;;1.45;75.19;99287.38;5071091;28;20044;-76
2023/01/22 10:10:41;;;;;;;58.33;25.83;;;;;;;1.47;75.75;99298.00;5071136;28;20467;-76
2023/01/22 10:13:20;;;;;;;39.85;21.02;;;;;;;1.48;75.00;99286.94;5071141;28;20077;-77
2023/01/22 10:15:48;;;;;;;31.27;17.25;;;;;;;1.53;75.69;99296.28;5071107;28;20150;-78
2023/01/22 10:18:25;;;;;;;35.38;19.20;;;;;;;1.57;75.46;99292.97;5071088;28;20522;-78
2023/01/22 10:20:53;;;;;;;32.83;18.50;;;;;;;1.60;75.27;99303.34;5071733;28;20016;-82
2023/01/22 10:23:22;;;;;;;33.45;18.40;;;;;;;1.62;75.34;99298.53;5068495;28;20695;-79
2023/01/22 10:25:48;;;;;;;30.63;17.23;;;;;;;1.63;74.95;99299.38;5070944;28;20036;-80
2023/01/22 10:28:14;;;;;;;30.70;17.52;;;;;;;1.64;75.41;99301.03;5071022;28;20032;-78
2023/01/22 10:30:48;;;;;;;32.95;17.92;;;;;;;1.67;75.12;99300.59;5070655;28;20035;-78
2023/01/22 10:33:21;;;;;;;32.70;17.60;;;;;;;1.70;75.56;99296.59;5068919;28;20032;-78
2023/01/22 10:35:51;;;;;;;34.45;18.63;;;;;;;1.72;75.03;99299.94;5070850;28;20104;-77
2023/01/22 10:38:28;;;;;;;31.05;18.08;;;;;;;1.72;74.86;99300.78;5070604;28;20502;-77
2023/01/22 10:41:00;;;;;;;39.03;20.98;;;;;;;1.76;75.54;99298.44;5050385;28;20587;-78
2023/01/22 10:43:30;;;;;;;41.75;21.33;;;;;;;1.76;75.75;99295.75;5050195;28;20033;-78
2023/01/22 10:46:05;;;;;;;49.03;24.30;;;;;;;1.76;75.03;99293.03;5032340;28;20025;-77
2023/01/22 10:48:32;;;;;;;52.03;22.77;;;;;;;1.77;75.57;99290.13;5050348;28;20029;-77
2023/01/22 10:51:11;;;;;;;66.30;25.50;;;;;;;1.77;75.39;99295.53;5054103;28;20494;-78
2023/01/22 10:53:43;;;;;;;92.87;34.70;;;;;;;1.81;75.25;99289.69;5073374;28;20031;-78
2023/01/22 10:56:11;;;;;;;85.93;31.13;;;;;;;1.81;74.86;99289.69;5074090;28;20386;-78
2023/01/22 10:58:45;;;;;;;88.80;30.98;;;;;;;1.83;75.21;99293.00;5074611;28;20025;-78
2023/01/22 11:01:27;;;;;;;86.82;30.52;;;;;;;1.84;75.68;99291.94;5074541;28;20036;-78
2023/01/22 11:03:53;;;;;;;99.45;37.45;;;;;;;1.86;74.97;99281.72;5074600;28;20025;-80
2023/01/22 11:06:25;;;;;;;90.38;31.30;;;;;;;1.88;74.83;99293.16;5074791;28;20032;-80
2023/01/22 11:09:11;;;;;;;72.22;25.05;;;;;;;1.90;75.58;99288.38;5074159;28;20109;-78
2023/01/22 11:11:42;;;;;;;63.92;23.23;;;;;;;1.90;74.92;99285.66;5074321;28;20090;-77
2023/01/22 11:14:22;;;;;;;78.50;29.85;;;;;;;1.91;75.46;99293.56;5074613;28;20033;-78
2023/01/22 11:16:50;;;;;;;74.50;26.38;;;;;;;1.93;75.15;99293.34;5073071;28;20032;-79
2023/01/22 11:19:20;;;;;;;77.05;26.02;;;;;;;1.94;75.20;99286.88;5073326;28;20031;-79
2023/01/22 11:21:49;;;;;;;79.05;26.25;;;;;;;1.98;75.61;99284.59;5072044;28;20071;-79
2023/01/22 11:24:36;;;;;;;90.93;34.28;;;;;;;1.99;75.44;99280.84;5072233;28;20521;-79
2023/01/22 11:27:14;;;;;;;65.70;26.02;;;;;;;1.97;74.83;99278.31;5069908;28;20024;-80
2023/01/22 11:29:52;;;;;;;55.45;23.77;;;;;;;1.98;75.04;99288.09;5070488;28;20021;-80
2023/01/22 11:32:35;;;;;;;59.33;24.55;;;;;;;1.99;75.40;99297.88;5070350;28;20473;-80